Time;durP1;ratioP1;P1;durP2;ratioP2;P2;SDS_P1;SDS_P2;PMS_P1;PMS_P2;Temp;Humidity;BMP_temperature;BMP_pressure;BME280_temperature;BME280_humidity;BME280_pressure;Samples;Min_cycle;Max_cycle;Signal;HPM_P1;HPM_P2
2021/12/27 00:00:46;;;;;;;16.33;10.10;;;-0.70;61.90;;;;;;5076789;28;20095;-52
2021/12/27 00:03:12;;;;;;;15.60;10.73;;;-0.60;62.10;;;;;;5094108;28;20460;-55
2021/12/27 00:05:37;;;;;;;14.60;10.32;;;-0.70;62.10;;;;;;5092786;28;20027;-55
2021/12/27 00:08:03;;;;;;;15.13;11.02;;;-0.70;62.20;;;;;;5074940;28;20396;-52
2021/12/27 00:10:29;;;;;;;15.55;10.88;;;-0.70;62.20;;;;;;5088441;28;20107;-53
2021/12/27 00:12:57;;;;;;;13.93;9.75;;;-0.70;62.10;;;;;;5094259;28;20028;-53
2021/12/27 00:15:24;;;;;;;14.65;10.35;;;-0.70;62.10;;;;;;5079321;28;20479;-51
2021/12/27 00:17:50;;;;;;;16.58;9.88;;;-0.70;62.20;;;;;;5074141;28;20017;-55
2021/12/27 00:20:18;;;;;;;14.70;9.82;;;-0.80;62.20;;;;;;5087516;28;20409;-52
2021/12/27 00:22:45;;;;;;;13.95;9.55;;;-0.80;62.30;;;;;;5094096;28;20032;-51
2021/12/27 00:25:11;;;;;;;13.07;10.00;;;-0.80;62.30;;;;;;5089629;28;20020;-54
2021/12/27 00:27:38;;;;;;;16.13;9.80;;;-0.80;62.40;;;;;;5092790;28;20506;-51
2021/12/27 00:30:05;;;;;;;12.32;9.07;;;-0.90;62.50;;;;;;5080724;28;20106;-52
2021/12/27 00:32:32;;;;;;;16.13;9.65;;;-0.90;62.60;;;;;;5089599;28;20028;-55
2021/12/27 00:34:58;;;;;;;15.85;9.32;;;-0.90;62.60;;;;;;5084241;28;20559;-51
2021/12/27 00:37:24;;;;;;;13.77;9.48;;;-1.00;62.70;;;;;;5075787;28;20016;-54
2021/12/27 00:39:50;;;;;;;17.38;9.80;;;-1.00;62.90;;;;;;5083442;28;20135;-56
2021/12/27 00:42:15;;;;;;;13.73;9.45;;;-1.00;62.80;;;;;;5082791;28;20056;-53
2021/12/27 00:44:41;;;;;;;13.60;8.77;;;-1.00;62.80;;;;;;5084953;28;20020;-53
2021/12/27 00:47:07;;;;;;;14.10;9.73;;;-1.00;62.80;;;;;;5079768;28;20028;-54
2021/12/27 00:49:32;;;;;;;12.32;9.02;;;-1.00;62.80;;;;;;5087505;28;20376;-52
2021/12/27 00:51:58;;;;;;;15.52;10.02;;;-1.00;62.90;;;;;;5073223;28;20028;-53
2021/12/27 00:54:24;;;;;;;13.80;9.98;;;-1.10;62.90;;;;;;5073542;28;20070;-51
2021/12/27 00:56:50;;;;;;;14.38;10.20;;;-1.10;63.00;;;;;;5076300;28;20468;-52
2021/12/27 00:59:16;;;;;;;13.63;9.63;;;-1.00;63.20;;;;;;5091224;28;20028;-54
2021/12/27 01:01:41;;;;;;;13.10;9.90;;;-1.00;63.10;;;;;;5087244;28;20111;-52
2021/12/27 01:04:07;;;;;;;14.63;10.88;;;-1.00;63.10;;;;;;5093134;28;20405;-51
2021/12/27 01:06:33;;;;;;;15.35;10.45;;;-1.00;63.10;;;;;;5092309;28;20540;-53
2021/12/27 01:08:59;;;;;;;14.35;10.88;;;-1.00;63.10;;;;;;5084442;28;20033;-52
2021/12/27 01:11:41;;;;;;;16.10;11.48;;;-1.00;63.10;;;;;;5073277;28;20029;-54
2021/12/27 01:14:16;;;;;;;17.25;12.10;;;-0.90;63.10;;;;;;5084599;28;20029;-53
2021/12/27 01:16:44;;;;;;;17.63;9.75;;;-1.00;62.90;;;;;;5084831;28;20040;-52
2021/12/27 01:19:10;;;;;;;17.70;9.85;;;-0.90;62.90;;;;;;5093513;28;20023;-55
2021/12/27 01:21:36;;;;;;;17.25;10.30;;;-0.90;62.80;;;;;;5078174;28;20036;-55
2021/12/27 01:24:04;;;;;;;16.60;10.07;;;-0.90;62.70;;;;;;5082289;28;20045;-55
2021/12/27 01:26:31;;;;;;;19.30;11.00;;;-1.00;62.80;;;;;;5072353;28;20045;-53
2021/12/27 01:28:59;;;;;;;14.80;10.05;;;-1.00;62.80;;;;;;5083234;28;20449;-53
2021/12/27 01:31:24;;;;;;;15.70;9.75;;;-1.10;63.00;;;;;;5091869;28;20344;-54
2021/12/27 01:33:50;;;;;;;14.80;9.73;;;-1.20;63.00;;;;;;5085554;28;20062;-51
2021/12/27 01:36:16;;;;;;;16.60;10.10;;;-1.20;63.10;;;;;;5093064;28;20020;-51
2021/12/27 01:38:43;;;;;;;15.18;10.38;;;-1.20;63.20;;;;;;5087561;28;20032;-52
2021/12/27 01:41:14;;;;;;;15.30;10.30;;;-1.20;63.40;;;;;;5073265;28;20028;-52
2021/12/27 01:43:41;;;;;;;13.07;10.13;;;-1.20;63.40;;;;;;5072968;28;20440;-52
2021/12/27 01:46:10;;;;;;;15.95;10.73;;;-1.20;63.40;;;;;;5078213;28;20020;-54
2021/12/27 01:48:39;;;;;;;15.50;10.77;;;-1.30;63.40;;;;;;5083042;28;20025;-55
2021/12/27 01:51:08;;;;;;;16.15;10.68;;;-1.20;63.50;;;;;;5079870;28;20118;-56
2021/12/27 01:53:36;;;;;;;14.68;10.40;;;-1.20;63.40;;;;;;5092197;28;20024;-52
2021/12/27 01:56:04;;;;;;;16.77;10.57;;;-1.20;63.30;;;;;;5086911;28;20107;-52
2021/12/27 01:58:30;;;;;;;15.93;10.88;;;-1.10;63.30;;;;;;5072893;28;20055;-52
2021/12/27 02:00:57;;;;;;;17.35;11.70;;;-1.10;63.20;;;;;;5073370;28;20021;-52
2021/12/27 02:03:26;;;;;;;17.50;11.43;;;-1.10;63.20;;;;;;5088162;28;20043;-53
2021/12/27 02:05:52;;;;;;;18.80;11.32;;;-1.10;63.10;;;;;;5094626;28;20451;-56
2021/12/27 02:08:18;;;;;;;15.25;10.82;;;-1.10;63.10;;;;;;5089680;28;20113;-52
2021/12/27 02:10:44;;;;;;;19.50;11.65;;;-1.10;63.00;;;;;;5090255;28;20118;-52
2021/12/27 02:13:11;;;;;;;20.63;12.32;;;-1.20;63.00;;;;;;5076611;28;20543;-53
2021/12/27 02:15:37;;;;;;;18.17;11.00;;;-1.20;63.20;;;;;;5076298;28;20155;-55
2021/12/27 02:18:03;;;;;;;16.73;11.25;;;-1.20;63.30;;;;;;5076235;28;20095;-52
2021/12/27 02:20:32;;;;;;;17.48;11.63;;;-1.20;63.40;;;;;;5076198;28;20411;-52
2021/12/27 02:23:02;;;;;;;19.35;11.98;;;-1.20;63.40;;;;;;5082335;28;20036;-53
2021/12/27 02:25:30;;;;;;;18.25;12.02;;;-1.20;63.30;;;;;;5095450;28;20383;-52
2021/12/27 02:27:57;;;;;;;18.05;11.02;;;-1.20;63.30;;;;;;5088638;28;20033;-52
2021/12/27 02:30:23;;;;;;;15.32;10.40;;;-1.20;63.30;;;;;;5082298;28;20036;-53
2021/12/27 02:32:54;;;;;;;15.23;10.60;;;-1.20;63.20;;;;;;5096191;28;20028;-53
2021/12/27 02:35:26;;;;;;;19.02;11.93;;;-1.20;63.20;;;;;;5096478;28;20069;-53
2021/12/27 02:37:54;;;;;;;15.70;10.80;;;-1.20;63.30;;;;;;5094785;28;20019;-51
2021/12/27 02:40:22;;;;;;;20.15;11.05;;;-1.20;63.30;;;;;;5090408;28;20077;-52
2021/12/27 02:42:59;;;;;;;19.25;12.00;;;-1.20;63.30;;;;;;5085294;28;20028;-53
2021/12/27 02:45:28;;;;;;;16.63;11.32;;;-1.20;63.30;;;;;;5093799;28;20036;-51
2021/12/27 02:47:54;;;;;;;16.40;11.20;;;-1.20;63.30;;;;;;5076197;28;20503;-54
2021/12/27 02:50:21;;;;;;;16.58;10.85;;;-1.20;63.20;;;;;;5075860;28;20032;-52
2021/12/27 02:52:46;;;;;;;14.80;10.18;;;-1.20;63.20;;;;;;5075752;28;20020;-54
2021/12/27 02:55:15;;;;;;;18.10;11.55;;;-1.20;63.20;;;;;;5076218;28;20127;-54
2021/12/27 02:57:48;;;;;;;15.95;11.25;;;-1.20;63.20;;;;;;5076481;28;20099;-54
2021/12/27 03:00:17;;;;;;;16.40;10.85;;;-1.20;63.20;;;;;;5077474;28;20714;-52
2021/12/27 03:02:45;;;;;;;17.15;11.70;;;-1.20;63.30;;;;;;5086596;28;20029;-51
2021/12/27 03:05:12;;;;;;;15.48;11.20;;;-1.20;63.20;;;;;;5075514;28;20103;-53
2021/12/27 03:07:40;;;;;;;16.42;11.55;;;-1.20;63.30;;;;;;5075574;28;20077;-51
2021/12/27 03:10:07;;;;;;;19.20;12.55;;;-1.20;63.30;;;;;;5075748;28;20435;-51
2021/12/27 03:12:33;;;;;;;19.13;13.07;;;-1.20;63.30;;;;;;5074682;28;20208;-55
2021/12/27 03:14:59;;;;;;;19.25;12.70;;;-1.20;63.40;;;;;;5088482;28;20041;-51
2021/12/27 03:17:24;;;;;;;21.15;12.88;;;-1.20;63.50;;;;;;5089371;28;20024;-53
2021/12/27 03:19:50;;;;;;;19.42;13.68;;;-1.30;63.40;;;;;;5075201;28;20099;-52
2021/12/27 03:22:16;;;;;;;17.27;12.30;;;-1.20;63.50;;;;;;5075195;28;20020;-55
2021/12/27 03:24:41;;;;;;;17.75;12.88;;;-1.20;63.60;;;;;;5075150;28;20366;-53
2021/12/27 03:27:07;;;;;;;18.45;12.65;;;-1.30;63.50;;;;;;5074484;28;20519;-54
2021/12/27 03:29:33;;;;;;;19.65;11.43;;;-1.40;63.50;;;;;;5084333;28;20404;-54
2021/12/27 03:31:58;;;;;;;17.40;12.73;;;-1.40;63.70;;;;;;5081716;28;20104;-53
2021/12/27 03:34:24;;;;;;;19.30;12.88;;;-1.40;63.80;;;;;;5095210;28;20031;-51
2021/12/27 03:36:50;;;;;;;19.73;13.57;;;-1.40;64.00;;;;;;5092840;28;20411;-53
2021/12/27 03:39:15;;;;;;;19.70;13.25;;;-1.40;64.00;;;;;;5075140;28;20024;-53
2021/12/27 03:41:41;;;;;;;19.27;12.40;;;-1.40;63.90;;;;;;5074895;28;20354;-51
2021/12/27 03:44:07;;;;;;;18.50;13.13;;;-1.30;64.10;;;;;;5079016;28;20028;-52
2021/12/27 03:46:33;;;;;;;17.13;11.90;;;-1.20;64.10;;;;;;5083873;28;20064;-53
2021/12/27 03:48:58;;;;;;;18.42;11.98;;;-1.20;64.10;;;;;;5075569;28;20028;-52
2021/12/27 03:51:24;;;;;;;21.38;13.02;;;-1.20;64.00;;;;;;5084160;28;20047;-52
2021/12/27 03:53:50;;;;;;;16.17;12.13;;;-1.10;63.90;;;;;;5085316;28;20021;-54
2021/12/27 03:56:16;;;;;;;19.35;12.52;;;-1.10;64.10;;;;;;5074694;28;20087;-52
2021/12/27 03:58:55;;;;;;;15.90;12.13;;;-1.10;64.20;;;;;;5074149;28;20039;-53
2021/12/27 04:01:23;;;;;;;18.08;13.05;;;-1.00;64.30;;;;;;5086242;28;20051;-52
2021/12/27 04:03:52;;;;;;;17.95;11.23;;;-1.00;64.30;;;;;;5078975;28;20024;-54
2021/12/27 04:06:20;;;;;;;19.73;11.45;;;-0.90;64.40;;;;;;5074911;28;20013;-54
2021/12/27 04:08:45;;;;;;;16.70;11.50;;;-1.00;64.30;;;;;;5078261;28;20028;-55
2021/12/27 04:11:11;;;;;;;16.00;11.85;;;-1.00;64.40;;;;;;5074048;28;20060;-54
2021/12/27 04:13:37;;;;;;;16.40;11.95;;;-1.00;64.70;;;;;;5074276;28;20016;-51
2021/12/27 04:16:03;;;;;;;17.98;11.73;;;-1.00;64.80;;;;;;5073726;28;20499;-51
2021/12/27 04:18:29;;;;;;;16.08;11.70;;;-1.00;64.90;;;;;;5093383;28;20108;-51
2021/12/27 04:20:55;;;;;;;16.98;12.35;;;-1.10;64.90;;;;;;5094226;28;20074;-56
2021/12/27 04:23:21;;;;;;;19.13;13.00;;;-1.10;64.80;;;;;;5092272;28;20056;-51
2021/12/27 04:25:47;;;;;;;20.30;12.60;;;-1.10;64.90;;;;;;5091683;28;20487;-53
2021/12/27 04:28:13;;;;;;;17.73;13.85;;;-1.10;65.00;;;;;;5076451;28;20032;-51
2021/12/27 04:30:39;;;;;;;18.67;13.32;;;-1.00;65.20;;;;;;5074541;28;20411;-52
2021/12/27 04:33:05;;;;;;;19.85;11.88;;;-1.10;65.10;;;;;;5080993;28;20055;-55
2021/12/27 04:35:31;;;;;;;19.15;14.20;;;-1.00;65.10;;;;;;5093828;28;20020;-52
2021/12/27 04:37:58;;;;;;;22.42;15.32;;;-1.00;65.30;;;;;;5094158;28;20032;-51
2021/12/27 04:40:25;;;;;;;21.50;15.25;;;-1.10;65.10;;;;;;5087603;28;20108;-52
2021/12/27 04:43:01;;;;;;;28.45;18.40;;;-1.10;65.20;;;;;;5086491;28;20067;-54
2021/12/27 04:45:27;;;;;;;19.90;14.20;;;-1.10;65.20;;;;;;5073511;28;20029;-52
2021/12/27 04:47:53;;;;;;;22.90;16.05;;;-1.10;65.40;;;;;;5073581;28;20028;-53
2021/12/27 04:50:19;;;;;;;20.90;13.07;;;-1.10;65.60;;;;;;5072985;28;20032;-52
2021/12/27 04:52:47;;;;;;;16.88;12.30;;;-1.10;65.70;;;;;;5092236;28;20024;-55
2021/12/27 04:55:12;;;;;;;17.17;13.18;;;-1.10;65.90;;;;;;5094015;28;20034;-54
2021/12/27 04:57:38;;;;;;;17.15;12.73;;;-1.10;66.10;;;;;;5087603;28;20099;-55
2021/12/27 05:00:05;;;;;;;17.20;11.98;;;-1.10;66.20;;;;;;5074472;28;20025;-52
2021/12/27 05:02:31;;;;;;;14.30;12.40;;;-1.10;66.30;;;;;;5083950;28;20032;-51
2021/12/27 05:04:57;;;;;;;16.58;12.15;;;-1.10;66.40;;;;;;5089163;28;20059;-52
2021/12/27 05:07:22;;;;;;;15.43;11.98;;;-1.10;66.40;;;;;;5077054;28;20044;-52
2021/12/27 05:09:48;;;;;;;18.42;12.65;;;-1.00;66.50;;;;;;5073275;28;20033;-53
2021/12/27 05:12:14;;;;;;;15.48;12.23;;;-1.00;66.70;;;;;;5073186;28;20074;-52
2021/12/27 05:14:39;;;;;;;16.50;12.18;;;-1.10;66.70;;;;;;5086497;28;20016;-51
2021/12/27 05:17:05;;;;;;;17.17;12.57;;;-1.00;66.90;;;;;;5093599;28;20029;-52
2021/12/27 05:19:31;;;;;;;16.55;12.77;;;-1.00;67.00;;;;;;5093091;28;20031;-54
2021/12/27 05:21:56;;;;;;;13.88;11.23;;;-1.00;67.10;;;;;;5087014;28;20033;-52
2021/12/27 05:24:23;;;;;;;18.38;14.00;;;-1.00;67.10;;;;;;5073082;28;20400;-52
2021/12/27 05:26:49;;;;;;;16.98;13.32;;;-0.90;67.00;;;;;;5073294;28;20040;-53
2021/12/27 05:29:19;;;;;;;22.42;16.60;;;-0.90;67.00;;;;;;5073383;28;20033;-54
2021/12/27 05:31:44;;;;;;;15.25;12.27;;;-0.90;67.00;;;;;;5084816;28;20468;-51
2021/12/27 05:34:11;;;;;;;18.67;14.25;;;-0.90;67.10;;;;;;5073441;28;20048;-51
2021/12/27 05:36:37;;;;;;;15.32;12.05;;;-0.90;67.20;;;;;;5075804;28;20031;-52
2021/12/27 05:39:03;;;;;;;16.25;11.98;;;-0.90;67.20;;;;;;5096969;28;20044;-53
2021/12/27 05:41:29;;;;;;;18.20;13.75;;;-0.90;67.40;;;;;;5097420;28;20028;-55
2021/12/27 05:43:55;;;;;;;17.90;13.48;;;-0.90;67.50;;;;;;5097436;28;20043;-52
2021/12/27 05:46:21;;;;;;;16.98;11.63;;;-0.90;67.60;;;;;;5077328;28;20025;-56
2021/12/27 05:48:46;;;;;;;13.80;11.07;;;-0.90;67.60;;;;;;5080256;28;20337;-51
2021/12/27 05:51:12;;;;;;;18.50;12.00;;;-0.90;67.60;;;;;;5096002;28;20100;-52
2021/12/27 05:53:38;;;;;;;14.95;11.38;;;-0.80;67.70;;;;;;5096184;28;20032;-55
2021/12/27 05:56:04;;;;;;;17.25;12.23;;;-0.70;67.60;;;;;;5091093;28;20423;-56
2021/12/27 05:58:29;;;;;;;15.05;10.77;;;-0.70;67.50;;;;;;5076068;28;20036;-53
2021/12/27 06:00:55;;;;;;;16.05;10.93;;;-0.70;67.50;;;;;;5086251;28;20099;-54
2021/12/27 06:03:21;;;;;;;14.88;10.85;;;-0.70;67.30;;;;;;5086620;28;20033;-52
2021/12/27 06:05:46;;;;;;;13.85;10.52;;;-0.60;67.30;;;;;;5077672;28;20113;-51
2021/12/27 06:08:12;;;;;;;15.38;11.73;;;-0.60;67.40;;;;;;5092897;28;20034;-53
2021/12/27 06:10:38;;;;;;;15.15;11.10;;;-0.60;67.50;;;;;;5086242;28;20060;-54
2021/12/27 06:13:03;;;;;;;16.63;12.00;;;-0.60;67.50;;;;;;5091626;28;20380;-54
2021/12/27 06:15:29;;;;;;;14.50;11.15;;;-0.60;67.50;;;;;;5083803;28;20078;-52
2021/12/27 06:17:55;;;;;;;14.57;11.68;;;-0.60;67.60;;;;;;5076417;28;20119;-53
2021/12/27 06:20:20;;;;;;;14.80;11.07;;;-0.60;67.60;;;;;;5080083;28;20081;-54
2021/12/27 06:22:50;;;;;;;13.85;10.88;;;-0.60;67.80;;;;;;5085773;28;20135;-52
2021/12/27 06:25:16;;;;;;;13.93;11.02;;;-0.70;67.90;;;;;;5082133;28;20468;-54
2021/12/27 06:27:42;;;;;;;14.55;11.68;;;-0.70;67.90;;;;;;5082491;28;20028;-51
2021/12/27 06:30:10;;;;;;;14.30;11.70;;;-0.60;68.10;;;;;;5090862;28;20364;-55
2021/12/27 06:32:36;;;;;;;14.40;11.48;;;-0.60;68.00;;;;;;5077513;28;20028;-55
2021/12/27 06:35:04;;;;;;;14.40;11.57;;;-0.60;68.00;;;;;;5078491;28;20028;-55
2021/12/27 06:37:30;;;;;;;14.63;11.65;;;-0.60;68.00;;;;;;5087265;28;20417;-53
2021/12/27 06:39:55;;;;;;;15.07;11.10;;;-0.60;68.00;;;;;;5082296;28;20056;-57
2021/12/27 06:42:21;;;;;;;14.45;12.52;;;-0.60;68.00;;;;;;5081723;28;20040;-53
2021/12/27 06:44:47;;;;;;;14.77;11.55;;;-0.60;68.10;;;;;;5084456;28;20028;-54
2021/12/27 06:47:12;;;;;;;14.98;11.25;;;-0.60;68.10;;;;;;5073286;28;20166;-55
2021/12/27 06:49:39;;;;;;;16.85;12.48;;;-0.60;68.00;;;;;;5079361;28;20138;-56
2021/12/27 06:52:05;;;;;;;14.02;10.63;;;-0.50;68.00;;;;;;5078132;28;20480;-55
2021/12/27 06:54:31;;;;;;;16.92;12.00;;;-0.50;68.00;;;;;;5078710;28;20129;-55
2021/12/27 06:57:00;;;;;;;16.63;11.32;;;-0.40;67.90;;;;;;5073559;28;20101;-55
2021/12/27 06:59:29;;;;;;;14.52;10.70;;;-0.40;67.70;;;;;;5073126;28;20028;-55
2021/12/27 07:01:55;;;;;;;17.20;12.27;;;-0.30;67.50;;;;;;5075374;28;20192;-53
2021/12/27 07:04:21;;;;;;;17.95;12.45;;;-0.40;67.30;;;;;;5076479;28;20028;-51
2021/12/27 07:06:46;;;;;;;15.35;10.77;;;-0.30;67.50;;;;;;5074217;28;20043;-55
2021/12/27 07:09:12;;;;;;;16.08;12.23;;;-0.40;67.40;;;;;;5077196;28;20111;-56
2021/12/27 07:11:39;;;;;;;15.20;11.73;;;-0.40;67.50;;;;;;5071714;28;20028;-56
2021/12/27 07:14:05;;;;;;;16.08;12.63;;;-0.40;67.60;;;;;;5069739;28;20032;-56
2021/12/27 07:16:31;;;;;;;18.65;13.05;;;-0.30;67.70;;;;;;5071621;28;20025;-54
2021/12/27 07:18:57;;;;;;;19.63;12.45;;;-0.30;67.70;;;;;;5070864;28;20032;-56
2021/12/27 07:21:22;;;;;;;16.30;12.93;;;-0.30;67.60;;;;;;5069531;28;20411;-54
2021/12/27 07:23:48;;;;;;;14.90;11.48;;;-0.20;67.50;;;;;;5070088;28;20139;-53
2021/12/27 07:26:14;;;;;;;15.38;10.63;;;-0.20;67.40;;;;;;5074037;28;20032;-56
2021/12/27 07:28:40;;;;;;;15.13;11.05;;;-0.20;67.40;;;;;;5069934;28;20087;-56
2021/12/27 07:31:07;;;;;;;14.25;10.50;;;-0.20;67.40;;;;;;5071696;28;20425;-54
2021/12/27 07:33:33;;;;;;;14.95;10.48;;;-0.20;67.40;;;;;;5074920;28;20063;-57
2021/12/27 07:35:59;;;;;;;16.35;10.88;;;-0.20;67.30;;;;;;5077416;28;20023;-55
2021/12/27 07:38:25;;;;;;;12.82;9.88;;;-0.10;67.20;;;;;;5077717;28;20024;-55
2021/12/27 07:40:51;;;;;;;13.27;10.10;;;-0.10;67.10;;;;;;5076948;28;20353;-56
2021/12/27 07:43:16;;;;;;;14.40;9.98;;;-0.10;67.00;;;;;;5071861;28;20036;-57
2021/12/27 07:45:42;;;;;;;13.02;10.60;;;0.00;66.90;;;;;;5066752;28;20107;-57
2021/12/27 07:48:09;;;;;;;15.48;10.70;;;0.00;66.90;;;;;;5068048;28;20078;-59
2021/12/27 07:50:35;;;;;;;12.65;10.32;;;0.00;66.90;;;;;;5065984;28;20016;-56
2021/12/27 07:53:01;;;;;;;15.38;10.27;;;0.10;66.90;;;;;;5070289;28;20032;-54
2021/12/27 07:55:28;;;;;;;15.25;11.13;;;0.10;66.80;;;;;;5062437;28;20055;-57
2021/12/27 07:57:57;;;;;;;15.70;11.32;;;0.10;66.70;;;;;;5065440;28;20032;-56
2021/12/27 08:00:24;;;;;;;12.00;10.05;;;0.20;66.70;;;;;;5066090;28;20358;-56
2021/12/27 08:02:50;;;;;;;14.60;10.82;;;0.20;66.60;;;;;;5061239;28;20036;-56
2021/12/27 08:05:16;;;;;;;14.88;9.98;;;0.20;66.60;;;;;;5067750;28;20032;-55
2021/12/27 08:07:42;;;;;;;14.00;10.50;;;0.20;66.70;;;;;;5064140;28;20044;-57
2021/12/27 08:10:09;;;;;;;14.30;10.18;;;0.20;66.70;;;;;;5069083;28;20082;-55
2021/12/27 08:12:35;;;;;;;13.98;9.52;;;0.20;66.80;;;;;;5063846;28;20039;-55
2021/12/27 08:15:02;;;;;;;13.82;10.85;;;0.20;66.70;;;;;;5068608;28;20028;-56
2021/12/27 08:17:28;;;;;;;13.40;10.05;;;0.30;66.60;;;;;;5073042;28;20029;-55
2021/12/27 08:19:54;;;;;;;15.10;10.45;;;0.30;66.50;;;;;;5065055;28;20051;-56
2021/12/27 08:22:19;;;;;;;15.18;10.35;;;0.30;67.20;;;;;;5056922;28;20033;-56
2021/12/27 08:24:45;;;;;;;13.00;10.40;;;0.30;66.70;;;;;;5061528;28;20097;-55
2021/12/27 08:27:11;;;;;;;12.85;9.77;;;0.30;66.70;;;;;;5065743;28;20051;-55
2021/12/27 08:29:37;;;;;;;11.55;8.65;;;0.30;66.60;;;;;;5063715;28;20031;-55
2021/12/27 08:32:03;;;;;;;12.93;9.23;;;0.30;66.60;;;;;;5060537;28;20043;-55
2021/12/27 08:34:31;;;;;;;11.93;9.35;;;0.20;66.70;;;;;;5062717;28;20036;-56
2021/12/27 08:36:57;;;;;;;12.73;9.68;;;0.20;66.90;;;;;;5063873;28;20035;-57
2021/12/27 08:39:23;;;;;;;14.52;10.50;;;0.20;67.20;;;;;;5062689;28;20040;-56
2021/12/27 08:41:49;;;;;;;13.10;10.27;;;0.20;67.10;;;;;;5064736;28;20032;-54
2021/12/27 08:44:15;;;;;;;14.35;10.43;;;0.20;67.20;;;;;;5059938;28;20039;-58
2021/12/27 08:46:41;;;;;;;13.13;10.30;;;0.20;67.30;;;;;;5061267;28;20056;-55
2021/12/27 08:49:07;;;;;;;13.45;9.73;;;0.20;67.30;;;;;;5067796;28;21327;-55
2021/12/27 08:51:32;;;;;;;11.68;9.40;;;0.20;67.50;;;;;;5065405;28;20047;-56
2021/12/27 08:53:58;;;;;;;11.82;9.88;;;0.20;67.20;;;;;;5059189;28;20024;-56
2021/12/27 08:56:24;;;;;;;15.98;10.15;;;0.20;67.20;;;;;;5060435;28;20025;-57
2021/12/27 08:58:50;;;;;;;13.25;9.60;;;0.20;67.20;;;;;;5059419;28;20024;-55
2021/12/27 09:01:15;;;;;;;18.30;11.02;;;0.30;67.30;;;;;;5057182;28;20039;-56
2021/12/27 09:03:41;;;;;;;13.82;9.32;;;0.30;67.30;;;;;;5063722;28;20942;-52
2021/12/27 09:06:07;;;;;;;15.38;10.85;;;0.30;67.20;;;;;;5066617;28;20043;-57
2021/12/27 09:08:33;;;;;;;15.73;11.27;;;0.30;67.10;;;;;;5058299;28;20098;-55
2021/12/27 09:10:58;;;;;;;15.77;11.05;;;0.40;67.00;;;;;;5060005;28;20032;-56
2021/12/27 09:13:36;;;;;;;12.93;10.15;;;0.50;66.90;;;;;;5055471;28;20029;-57
2021/12/27 09:16:03;;;;;;;13.77;10.48;;;0.50;66.70;;;;;;5049226;28;20102;-56
2021/12/27 09:18:33;;;;;;;14.32;11.55;;;0.50;66.50;;;;;;5055681;28;20029;-56
2021/12/27 09:21:03;;;;;;;13.75;9.95;;;0.50;66.50;;;;;;5056461;28;20070;-57
2021/12/27 09:23:29;;;;;;;14.88;10.70;;;0.60;66.50;;;;;;5059236;28;20071;-57
2021/12/27 09:25:55;;;;;;;15.93;10.90;;;0.60;66.40;;;;;;5065856;28;20115;-56
2021/12/27 09:28:21;;;;;;;15.93;11.32;;;0.60;66.30;;;;;;5061217;28;20468;-57
2021/12/27 09:30:46;;;;;;;12.40;10.45;;;0.70;66.20;;;;;;5065493;28;22514;-57
2021/12/27 09:33:12;;;;;;;13.50;10.25;;;0.70;66.10;;;;;;5071303;28;20040;-57
2021/12/27 09:35:39;;;;;;;14.75;11.38;;;0.70;66.10;;;;;;5066157;28;21321;-57
2021/12/27 09:38:05;;;;;;;16.90;12.80;;;0.70;66.10;;;;;;5066904;28;20024;-57
2021/12/27 09:40:31;;;;;;;20.40;14.98;;;0.70;66.20;;;;;;5062547;28;20028;-56
2021/12/27 09:42:58;;;;;;;19.00;14.05;;;0.60;66.30;;;;;;5070510;28;20028;-56
2021/12/27 09:45:24;;;;;;;20.30;14.43;;;0.70;66.40;;;;;;5065086;28;20152;-56
2021/12/27 09:47:51;;;;;;;16.25;12.55;;;0.70;66.50;;;;;;5066328;28;20098;-57
2021/12/27 09:50:41;;;;;;;16.77;13.52;;;0.80;66.40;;;;;;5063940;28;22766;-57
2021/12/27 09:53:07;;;;;;;14.38;11.48;;;0.80;66.20;;;;;;5064834;28;20456;-56
2021/12/27 09:55:33;;;;;;;15.65;12.02;;;0.80;66.10;;;;;;5061011;28;20097;-56
2021/12/27 09:57:59;;;;;;;17.02;12.57;;;0.70;66.10;;;;;;5055392;28;20020;-57
2021/12/27 10:00:26;;;;;;;19.02;13.95;;;0.70;66.20;;;;;;5050691;28;20111;-57
2021/12/27 10:02:54;;;;;;;23.13;15.35;;;0.70;66.40;;;;;;5060224;28;20400;-54
2021/12/27 10:05:21;;;;;;;22.92;16.92;;;0.70;66.50;;;;;;5065001;28;20028;-56
2021/12/27 10:07:47;;;;;;;20.88;15.30;;;0.70;66.50;;;;;;5059428;28;20071;-57
2021/12/27 10:10:13;;;;;;;30.52;19.83;;;0.70;66.50;;;;;;5059973;28;20028;-56
2021/12/27 10:12:38;;;;;;;40.53;23.98;;;0.60;66.50;;;;;;5055264;28;20039;-56
2021/12/27 10:15:11;;;;;;;43.80;24.27;;;0.60;66.30;;;;;;5059481;28;20043;-57
2021/12/27 10:17:37;;;;;;;48.03;28.05;;;0.60;66.50;;;;;;5059100;28;20378;-61
2021/12/27 10:20:09;;;;;;;52.28;30.20;;;0.60;66.50;;;;;;5065520;28;20036;-58
2021/12/27 10:22:47;;;;;;;44.33;28.42;;;0.60;66.60;;;;;;5060697;28;20082;-57
2021/12/27 10:25:21;;;;;;;46.67;29.15;;;0.60;66.70;;;;;;5071766;28;20047;-58
2021/12/27 10:27:49;;;;;;;39.00;26.00;;;0.60;66.80;;;;;;5070261;28;20040;-56
2021/12/27 10:30:18;;;;;;;35.00;23.73;;;0.70;66.70;;;;;;5061432;28;20028;-57
2021/12/27 10:33:01;;;;;;;40.38;25.23;;;0.70;66.60;;;;;;5062868;28;20028;-56
2021/12/27 10:35:37;;;;;;;55.95;28.73;;;0.80;66.60;;;;;;5063610;28;20433;-57
2021/12/27 10:38:27;;;;;;;51.72;30.13;;;0.80;66.60;;;;;;5063400;28;20032;-56
2021/12/27 10:41:01;;;;;;;59.20;31.77;;;0.90;66.50;;;;;;5065429;28;20093;-56
2021/12/27 10:43:33;;;;;;;43.33;27.05;;;0.90;66.30;;;;;;5068386;28;20039;-54
2021/12/27 10:46:01;;;;;;;84.80;39.72;;;0.90;66.20;;;;;;5071558;28;20037;-57
2021/12/27 10:48:54;;;;;;;96.78;44.70;;;0.90;66.30;;;;;;5069179;28;20044;-59
2021/12/27 10:51:20;;;;;;;87.50;39.15;;;1.00;66.40;;;;;;5071103;28;20042;-56
2021/12/27 10:53:47;;;;;;;101.20;49.60;;;0.90;66.20;;;;;;5064298;28;20024;-57
2021/12/27 10:56:15;;;;;;;114.10;51.85;;;0.90;66.10;;;;;;5070776;28;20024;-57
2021/12/27 10:59:07;;;;;;;116.68;52.28;;;0.80;66.20;;;;;;5062223;28;20028;-55
2021/12/27 11:01:40;;;;;;;99.40;43.00;;;0.90;66.40;;;;;;5052384;28;20123;-56
2021/12/27 11:04:05;;;;;;;86.72;40.80;;;0.90;66.30;;;;;;5057304;28;20121;-56
2021/12/27 11:06:36;;;;;;;84.80;42.25;;;0.90;66.30;;;;;;5052330;28;20027;-56
2021/12/27 11:09:02;;;;;;;71.38;32.78;;;0.90;66.20;;;;;;5052385;28;20032;-57
2021/12/27 11:11:28;;;;;;;57.92;28.73;;;0.90;66.30;;;;;;5050106;28;20408;-55
2021/12/27 11:13:56;;;;;;;61.83;30.70;;;0.80;66.00;;;;;;5056287;28;20032;-56
2021/12/27 11:16:22;;;;;;;50.05;26.15;;;0.80;65.80;;;;;;5063595;28;20039;-56
2021/12/27 11:18:50;;;;;;;39.47;24.52;;;0.60;65.90;;;;;;5070140;28;20483;-56
2021/12/27 11:21:21;;;;;;;45.70;24.90;;;0.60;66.30;;;;;;5067755;28;20065;-57
2021/12/27 11:23:50;;;;;;;;;;;0.60;66.60;;;;;;5067163;28;20105;-56
2021/12/27 11:26:24;;;;;;;41.30;23.00;;;0.50;66.80;;;;;;5070658;28;19991;-56
2021/12/27 11:28:50;;;;;;;44.00;26.50;;;0.60;66.90;;;;;;5069332;28;20054;-57
2021/12/27 11:31:28;;;;;;;37.03;21.85;;;0.60;67.00;;;;;;5068986;28;20020;-57
2021/12/27 11:33:58;;;;;;;36.97;22.88;;;0.70;67.00;;;;;;5069769;28;20663;-56
2021/12/27 11:36:29;;;;;;;51.75;27.52;;;0.70;66.90;;;;;;5072001;28;20094;-55
2021/12/27 11:38:56;;;;;;;55.40;29.20;;;0.70;66.90;;;;;;5072490;28;20047;-56
2021/12/27 11:41:28;;;;;;;53.35;28.13;;;0.80;67.00;;;;;;5066958;28;20078;-57
2021/12/27 11:44:03;;;;;;;78.43;37.72;;;0.80;66.70;;;;;;5070600;28;20017;-56
2021/12/27 11:46:32;;;;;;;44.92;25.83;;;0.80;66.60;;;;;;5069312;28;20097;-55
2021/12/27 11:48:59;;;;;;;52.40;28.13;;;0.80;66.60;;;;;;5072478;28;20031;-56
2021/12/27 11:51:32;;;;;;;39.30;21.05;;;0.90;66.60;;;;;;5072169;28;20105;-55
2021/12/27 11:53:59;;;;;;;36.90;21.55;;;0.90;66.50;;;;;;5072515;28;20034;-55
2021/12/27 11:56:47;;;;;;;42.85;24.27;;;0.90;66.60;;;;;;5060608;28;20024;-56
2021/12/27 11:59:21;;;;;;;73.90;37.20;;;0.90;66.40;;;;;;5070848;28;20161;-56
2021/12/27 12:02:06;;;;;;;72.88;36.55;;;0.90;66.40;;;;;;5060616;28;20043;-56
2021/12/27 12:04:45;;;;;;;82.18;40.50;;;0.90;66.40;;;;;;5063329;28;20823;-56
2021/12/27 12:07:34;;;;;;;74.32;39.10;;;0.90;66.40;;;;;;5068692;28;20086;-54
2021/12/27 12:10:18;;;;;;;65.80;35.17;;;0.80;66.40;;;;;;5062937;28;20506;-57
2021/12/27 12:13:23;;;;;;;39.42;22.58;;;0.90;66.50;;;;;;5054934;28;20456;-54
2021/12/27 12:16:02;;;;;;;27.80;17.70;;;0.80;66.40;;;;;;5050504;28;21407;-59
2021/12/27 12:18:30;;;;;;;31.02;18.10;;;0.70;66.60;;;;;;5051899;28;20020;-58
2021/12/27 12:20:58;;;;;;;26.42;17.17;;;0.70;66.90;;;;;;5057002;28;20027;-56
2021/12/27 12:23:23;;;;;;;23.70;14.70;;;0.60;67.10;;;;;;5060749;28;20052;-57
2021/12/27 12:25:58;;;;;;;21.13;14.27;;;0.60;67.10;;;;;;5062163;28;20028;-56
2021/12/27 12:28:24;;;;;;;24.40;15.88;;;0.60;67.20;;;;;;5062751;28;20036;-57
2021/12/27 12:30:51;;;;;;;16.63;12.18;;;0.60;67.30;;;;;;5069543;28;20950;-56
2021/12/27 12:33:26;;;;;;;17.48;11.82;;;0.60;67.40;;;;;;5071575;28;20082;-57
2021/12/27 12:36:00;;;;;;;13.70;9.70;;;0.60;67.40;;;;;;5066383;28;20514;-55